sensor_id;sensor_type;location;lat;lon;timestamp;P1;durP1;ratioP1;P2;durP2;ratioP2
71080;SDS011;58740;50.672;18.690;2024-01-11T00:02:33;228.30;;;86.80;;
71080;SDS011;58740;50.672;18.690;2024-01-11T00:05:08;242.10;;;87.20;;
71080;SDS011;58740;50.672;18.690;2024-01-11T00:07:42;248.50;;;86.90;;
71080;SDS011;58740;50.672;18.690;2024-01-11T00:10:15;257.50;;;87.70;;
71080;SDS011;58740;50.672;18.690;2024-01-11T00:12:49;232.70;;;85.70;;
71080;SDS011;58740;50.672;18.690;2024-01-11T00:15:22;241.60;;;90.50;;
71080;SDS011;58740;50.672;18.690;2024-01-11T00:17:55;251.70;;;89.80;;
71080;SDS011;58740;50.672;18.690;2024-01-11T00:20:29;242.80;;;89.80;;
71080;SDS011;58740;50.672;18.690;2024-01-11T00:23:02;254.90;;;95.20;;
71080;SDS011;58740;50.672;18.690;2024-01-11T00:25:35;242.00;;;90.60;;
71080;SDS011;58740;50.672;18.690;2024-01-11T00:28:08;229.20;;;91.30;;
71080;SDS011;58740;50.672;18.690;2024-01-11T00:30:42;231.30;;;90.80;;
71080;SDS011;58740;50.672;18.690;2024-01-11T00:33:15;236.60;;;85.10;;
71080;SDS011;58740;50.672;18.690;2024-01-11T00:35:48;221.70;;;83.90;;
71080;SDS011;58740;50.672;18.690;2024-01-11T00:38:22;228.90;;;82.60;;
71080;SDS011;58740;50.672;18.690;2024-01-11T00:40:55;224.10;;;80.00;;
71080;SDS011;58740;50.672;18.690;2024-01-11T00:43:28;209.90;;;79.50;;
71080;SDS011;58740;50.672;18.690;2024-01-11T00:46:02;210.30;;;78.80;;
71080;SDS011;58740;50.672;18.690;2024-01-11T00:48:35;211.90;;;79.90;;
71080;SDS011;58740;50.672;18.690;2024-01-11T00:51:09;226.70;;;79.60;;
71080;SDS011;58740;50.672;18.690;2024-01-11T00:53:42;210.50;;;78.10;;
71080;SDS011;58740;50.672;18.690;2024-01-11T00:56:18;227.70;;;83.70;;
71080;SDS011;58740;50.672;18.690;2024-01-11T00:58:52;211.00;;;80.50;;
71080;SDS011;58740;50.672;18.690;2024-01-11T01:01:26;207.60;;;79.20;;
71080;SDS011;58740;50.672;18.690;2024-01-11T01:03:59;211.10;;;76.80;;
71080;SDS011;58740;50.672;18.690;2024-01-11T01:06:33;210.80;;;78.20;;
71080;SDS011;58740;50.672;18.690;2024-01-11T01:09:06;226.40;;;80.00;;
71080;SDS011;58740;50.672;18.690;2024-01-11T01:11:40;207.80;;;73.80;;
71080;SDS011;58740;50.672;18.690;2024-01-11T01:14:13;197.30;;;71.70;;
71080;SDS011;58740;50.672;18.690;2024-01-11T01:16:46;191.60;;;73.00;;
71080;SDS011;58740;50.672;18.690;2024-01-11T01:19:19;195.60;;;70.40;;
71080;SDS011;58740;50.672;18.690;2024-01-11T01:21:53;183.70;;;67.40;;
71080;SDS011;58740;50.672;18.690;2024-01-11T01:24:26;184.30;;;68.90;;
71080;SDS011;58740;50.672;18.690;2024-01-11T01:26:59;182.40;;;65.20;;
71080;SDS011;58740;50.672;18.690;2024-01-11T01:29:32;190.40;;;68.30;;
71080;SDS011;58740;50.672;18.690;2024-01-11T01:32:06;183.30;;;66.50;;
71080;SDS011;58740;50.672;18.690;2024-01-11T01:34:39;172.90;;;63.10;;
71080;SDS011;58740;50.672;18.690;2024-01-11T01:37:15;179.00;;;65.70;;
71080;SDS011;58740;50.672;18.690;2024-01-11T01:39:50;183.40;;;67.60;;
71080;SDS011;58740;50.672;18.690;2024-01-11T01:42:23;195.80;;;66.30;;
71080;SDS011;58740;50.672;18.690;2024-01-11T01:44:57;200.40;;;66.90;;
71080;SDS011;58740;50.672;18.690;2024-01-11T01:47:30;184.30;;;65.20;;
71080;SDS011;58740;50.672;18.690;2024-01-11T01:50:05;194.60;;;67.10;;
71080;SDS011;58740;50.672;18.690;2024-01-11T01:52:41;180.30;;;65.40;;
71080;SDS011;58740;50.672;18.690;2024-01-11T01:55:16;188.00;;;68.10;;
71080;SDS011;58740;50.672;18.690;2024-01-11T01:57:51;181.10;;;69.20;;
71080;SDS011;58740;50.672;18.690;2024-01-11T02:00:25;202.60;;;69.20;;
71080;SDS011;58740;50.672;18.690;2024-01-11T02:02:59;189.20;;;64.70;;
71080;SDS011;58740;50.672;18.690;2024-01-11T02:05:33;180.10;;;65.60;;
71080;SDS011;58740;50.672;18.690;2024-01-11T02:08:08;186.20;;;64.10;;
71080;SDS011;58740;50.672;18.690;2024-01-11T02:10:44;186.80;;;66.50;;
71080;SDS011;58740;50.672;18.690;2024-01-11T02:13:18;203.70;;;66.50;;
71080;SDS011;58740;50.672;18.690;2024-01-11T02:15:52;190.50;;;66.50;;
71080;SDS011;58740;50.672;18.690;2024-01-11T02:18:25;200.50;;;74.40;;
71080;SDS011;58740;50.672;18.690;2024-01-11T02:20:59;264.20;;;90.60;;
71080;SDS011;58740;50.672;18.690;2024-01-11T02:23:39;314.80;;;112.80;;
71080;SDS011;58740;50.672;18.690;2024-01-11T02:26:19;257.40;;;91.40;;
71080;SDS011;58740;50.672;18.690;2024-01-11T02:28:53;253.70;;;86.80;;
71080;SDS011;58740;50.672;18.690;2024-01-11T02:31:26;240.90;;;85.60;;
71080;SDS011;58740;50.672;18.690;2024-01-11T02:34:01;216.30;;;77.30;;
71080;SDS011;58740;50.672;18.690;2024-01-11T02:36:34;198.30;;;68.90;;
71080;SDS011;58740;50.672;18.690;2024-01-11T02:39:07;205.10;;;72.30;;
71080;SDS011;58740;50.672;18.690;2024-01-11T02:41:41;197.50;;;69.30;;
71080;SDS011;58740;50.672;18.690;2024-01-11T02:44:15;195.70;;;70.20;;
71080;SDS011;58740;50.672;18.690;2024-01-11T02:46:48;193.10;;;70.60;;
71080;SDS011;58740;50.672;18.690;2024-01-11T02:49:22;186.70;;;68.90;;
71080;SDS011;58740;50.672;18.690;2024-01-11T02:51:55;193.60;;;67.20;;
71080;SDS011;58740;50.672;18.690;2024-01-11T02:54:28;184.20;;;67.20;;
71080;SDS011;58740;50.672;18.690;2024-01-11T02:57:02;195.40;;;71.50;;
71080;SDS011;58740;50.672;18.690;2024-01-11T02:59:36;200.40;;;71.20;;
71080;SDS011;58740;50.672;18.690;2024-01-11T03:02:11;195.80;;;70.20;;
71080;SDS011;58740;50.672;18.690;2024-01-11T03:04:44;201.00;;;73.00;;
71080;SDS011;58740;50.672;18.690;2024-01-11T03:07:18;202.00;;;71.00;;
71080;SDS011;58740;50.672;18.690;2024-01-11T03:09:51;196.10;;;71.90;;
71080;SDS011;58740;50.672;18.690;2024-01-11T03:12:24;198.30;;;68.60;;
71080;SDS011;58740;50.672;18.690;2024-01-11T03:14:57;190.00;;;69.90;;
71080;SDS011;58740;50.672;18.690;2024-01-11T03:17:30;189.40;;;68.10;;
71080;SDS011;58740;50.672;18.690;2024-01-11T03:20:05;181.00;;;69.80;;
71080;SDS011;58740;50.672;18.690;2024-01-11T03:22:46;192.10;;;70.60;;
71080;SDS011;58740;50.672;18.690;2024-01-11T03:25:20;192.30;;;67.10;;
71080;SDS011;58740;50.672;18.690;2024-01-11T03:27:53;172.20;;;67.40;;
71080;SDS011;58740;50.672;18.690;2024-01-11T03:30:26;199.80;;;72.00;;
71080;SDS011;58740;50.672;18.690;2024-01-11T03:32:59;188.80;;;69.70;;
71080;SDS011;58740;50.672;18.690;2024-01-11T03:35:33;196.90;;;65.90;;
71080;SDS011;58740;50.672;18.690;2024-01-11T03:38:09;210.50;;;71.50;;
71080;SDS011;58740;50.672;18.690;2024-01-11T03:40:43;231.40;;;76.40;;
71080;SDS011;58740;50.672;18.690;2024-01-11T03:43:18;242.60;;;80.40;;
71080;SDS011;58740;50.672;18.690;2024-01-11T03:45:51;254.80;;;82.20;;
71080;SDS011;58740;50.672;18.690;2024-01-11T03:48:24;254.20;;;81.40;;
71080;SDS011;58740;50.672;18.690;2024-01-11T03:50:58;273.00;;;88.10;;
71080;SDS011;58740;50.672;18.690;2024-01-11T03:53:31;249.00;;;82.30;;
71080;SDS011;58740;50.672;18.690;2024-01-11T03:56:08;254.50;;;80.10;;
71080;SDS011;58740;50.672;18.690;2024-01-11T03:58:42;236.60;;;77.30;;
71080;SDS011;58740;50.672;18.690;2024-01-11T04:01:17;184.70;;;68.40;;
71080;SDS011;58740;50.672;18.690;2024-01-11T04:03:50;202.00;;;70.10;;
71080;SDS011;58740;50.672;18.690;2024-01-11T04:06:23;205.90;;;68.90;;
71080;SDS011;58740;50.672;18.690;2024-01-11T04:08:57;183.30;;;65.90;;
71080;SDS011;58740;50.672;18.690;2024-01-11T04:11:30;173.60;;;64.50;;
71080;SDS011;58740;50.672;18.690;2024-01-11T04:14:04;194.20;;;66.20;;
71080;SDS011;58740;50.672;18.690;2024-01-11T04:16:41;190.50;;;64.20;;
71080;SDS011;58740;50.672;18.690;2024-01-11T04:19:14;182.60;;;62.90;;
71080;SDS011;58740;50.672;18.690;2024-01-11T04:21:52;190.60;;;64.10;;
71080;SDS011;58740;50.672;18.690;2024-01-11T04:24:25;165.60;;;63.70;;
71080;SDS011;58740;50.672;18.690;2024-01-11T04:26:59;176.50;;;63.90;;
71080;SDS011;58740;50.672;18.690;2024-01-11T04:29:32;175.40;;;64.00;;
71080;SDS011;58740;50.672;18.690;2024-01-11T04:32:06;184.00;;;66.10;;
71080;SDS011;58740;50.672;18.690;2024-01-11T04:34:39;169.60;;;66.00;;
71080;SDS011;58740;50.672;18.690;2024-01-11T04:37:12;184.60;;;68.30;;
71080;SDS011;58740;50.672;18.690;2024-01-11T04:39:46;179.50;;;65.00;;
71080;SDS011;58740;50.672;18.690;2024-01-11T04:42:19;172.30;;;62.80;;
71080;SDS011;58740;50.672;18.690;2024-01-11T04:44:52;179.60;;;64.70;;
71080;SDS011;58740;50.672;18.690;2024-01-11T04:47:25;173.30;;;64.50;;
71080;SDS011;58740;50.672;18.690;2024-01-11T04:52:52;162.00;;;58.40;;
71080;SDS011;58740;50.672;18.690;2024-01-11T04:55:25;174.30;;;61.50;;
71080;SDS011;58740;50.672;18.690;2024-01-11T04:57:59;181.50;;;61.80;;
71080;SDS011;58740;50.672;18.690;2024-01-11T05:00:32;173.90;;;61.20;;
71080;SDS011;58740;50.672;18.690;2024-01-11T05:03:05;169.90;;;61.70;;
71080;SDS011;58740;50.672;18.690;2024-01-11T05:05:39;178.50;;;62.60;;
71080;SDS011;58740;50.672;18.690;2024-01-11T05:08:12;181.20;;;63.20;;
71080;SDS011;58740;50.672;18.690;2024-01-11T05:10:46;188.40;;;65.80;;
71080;SDS011;58740;50.672;18.690;2024-01-11T05:13:19;184.70;;;69.40;;
71080;SDS011;58740;50.672;18.690;2024-01-11T05:15:53;185.70;;;69.60;;
71080;SDS011;58740;50.672;18.690;2024-01-11T05:18:26;177.30;;;66.80;;
71080;SDS011;58740;50.672;18.690;2024-01-11T05:21:04;197.60;;;72.20;;
71080;SDS011;58740;50.672;18.690;2024-01-11T05:23:37;175.50;;;64.60;;
71080;SDS011;58740;50.672;18.690;2024-01-11T05:26:12;187.00;;;63.80;;
71080;SDS011;58740;50.672;18.690;2024-01-11T05:28:47;168.60;;;59.10;;
71080;SDS011;58740;50.672;18.690;2024-01-11T05:31:20;159.60;;;62.10;;
71080;SDS011;58740;50.672;18.690;2024-01-11T05:33:53;171.30;;;59.30;;
71080;SDS011;58740;50.672;18.690;2024-01-11T05:36:27;190.30;;;65.80;;
71080;SDS011;58740;50.672;18.690;2024-01-11T05:39:03;178.60;;;61.90;;
71080;SDS011;58740;50.672;18.690;2024-01-11T05:41:36;198.30;;;70.50;;
71080;SDS011;58740;50.672;18.690;2024-01-11T05:44:09;199.60;;;70.60;;
71080;SDS011;58740;50.672;18.690;2024-01-11T05:46:42;187.70;;;66.30;;
71080;SDS011;58740;50.672;18.690;2024-01-11T05:49:16;204.70;;;71.70;;
71080;SDS011;58740;50.672;18.690;2024-01-11T05:51:49;208.50;;;73.10;;
71080;SDS011;58740;50.672;18.690;2024-01-11T05:54:22;195.30;;;68.70;;
71080;SDS011;58740;50.672;18.690;2024-01-11T05:56:58;182.00;;;65.00;;
71080;SDS011;58740;50.672;18.690;2024-01-11T05:59:31;160.50;;;58.90;;
71080;SDS011;58740;50.672;18.690;2024-01-11T06:02:05;179.50;;;70.80;;
71080;SDS011;58740;50.672;18.690;2024-01-11T06:04:38;172.60;;;65.70;;
71080;SDS011;58740;50.672;18.690;2024-01-11T06:07:12;173.40;;;66.20;;
71080;SDS011;58740;50.672;18.690;2024-01-11T06:09:45;181.50;;;63.40;;
71080;SDS011;58740;50.672;18.690;2024-01-11T06:12:18;160.40;;;59.90;;
71080;SDS011;58740;50.672;18.690;2024-01-11T06:14:51;153.30;;;58.30;;
71080;SDS011;58740;50.672;18.690;2024-01-11T06:17:24;148.20;;;54.90;;
71080;SDS011;58740;50.672;18.690;2024-01-11T06:19:58;133.80;;;50.50;;
71080;SDS011;58740;50.672;18.690;2024-01-11T06:22:31;170.50;;;58.40;;
71080;SDS011;58740;50.672;18.690;2024-01-11T06:25:05;143.70;;;53.30;;
71080;SDS011;58740;50.672;18.690;2024-01-11T06:27:39;153.30;;;55.30;;
71080;SDS011;58740;50.672;18.690;2024-01-11T06:30:15;138.60;;;51.80;;
71080;SDS011;58740;50.672;18.690;2024-01-11T06:32:49;150.10;;;54.20;;
71080;SDS011;58740;50.672;18.690;2024-01-11T06:35:23;155.90;;;56.90;;
71080;SDS011;58740;50.672;18.690;2024-01-11T06:37:56;166.40;;;61.20;;
71080;SDS011;58740;50.672;18.690;2024-01-11T06:40:29;185.00;;;61.90;;
71080;SDS011;58740;50.672;18.690;2024-01-11T06:43:03;115.40;;;48.10;;
71080;SDS011;58740;50.672;18.690;2024-01-11T06:45:36;165.20;;;57.40;;
71080;SDS011;58740;50.672;18.690;2024-01-11T06:48:09;164.90;;;61.40;;
71080;SDS011;58740;50.672;18.690;2024-01-11T06:50:43;175.50;;;60.50;;
71080;SDS011;58740;50.672;18.690;2024-01-11T06:53:17;149.70;;;55.40;;
71080;SDS011;58740;50.672;18.690;2024-01-11T06:55:50;177.90;;;61.50;;
71080;SDS011;58740;50.672;18.690;2024-01-11T06:58:24;157.80;;;54.00;;
71080;SDS011;58740;50.672;18.690;2024-01-11T07:00:57;167.60;;;58.10;;
71080;SDS011;58740;50.672;18.690;2024-01-11T07:03:30;163.10;;;58.20;;
71080;SDS011;58740;50.672;18.690;2024-01-11T07:06:04;160.00;;;56.60;;
71080;SDS011;58740;50.672;18.690;2024-01-11T07:08:37;179.50;;;65.10;;
71080;SDS011;58740;50.672;18.690;2024-01-11T07:11:11;196.30;;;68.40;;
71080;SDS011;58740;50.672;18.690;2024-01-11T07:13:44;187.70;;;65.30;;
71080;SDS011;58740;50.672;18.690;2024-01-11T07:16:18;173.40;;;60.90;;
71080;SDS011;58740;50.672;18.690;2024-01-11T07:18:51;191.30;;;63.60;;
71080;SDS011;58740;50.672;18.690;2024-01-11T07:21:25;148.20;;;53.90;;
71080;SDS011;58740;50.672;18.690;2024-01-11T07:24:02;141.30;;;49.30;;
71080;SDS011;58740;50.672;18.690;2024-01-11T07:26:35;128.30;;;46.50;;
71080;SDS011;58740;50.672;18.690;2024-01-11T07:29:09;137.00;;;48.50;;
71080;SDS011;58740;50.672;18.690;2024-01-11T07:31:42;127.50;;;48.00;;
71080;SDS011;58740;50.672;18.690;2024-01-11T07:34:15;155.80;;;54.60;;
71080;SDS011;58740;50.672;18.690;2024-01-11T07:36:49;161.30;;;56.40;;
71080;SDS011;58740;50.672;18.690;2024-01-11T07:39:23;153.00;;;57.30;;
71080;SDS011;58740;50.672;18.690;2024-01-11T07:41:57;137.40;;;51.20;;
71080;SDS011;58740;50.672;18.690;2024-01-11T07:44:31;140.40;;;48.10;;
71080;SDS011;58740;50.672;18.690;2024-01-11T07:47:04;143.60;;;49.60;;
71080;SDS011;58740;50.672;18.690;2024-01-11T07:49:38;141.50;;;48.70;;
71080;SDS011;58740;50.672;18.690;2024-01-11T07:52:11;128.30;;;48.10;;
71080;SDS011;58740;50.672;18.690;2024-01-11T07:54:48;141.60;;;52.20;;
71080;SDS011;58740;50.672;18.690;2024-01-11T07:57:21;145.40;;;57.60;;
71080;SDS011;58740;50.672;18.690;2024-01-11T07:59:55;165.10;;;61.50;;
71080;SDS011;58740;50.672;18.690;2024-01-11T08:02:29;163.70;;;59.00;;
71080;SDS011;58740;50.672;18.690;2024-01-11T08:05:03;117.10;;;42.70;;
71080;SDS011;58740;50.672;18.690;2024-01-11T08:07:37;101.90;;;39.00;;
71080;SDS011;58740;50.672;18.690;2024-01-11T08:10:12;112.60;;;40.30;;
71080;SDS011;58740;50.672;18.690;2024-01-11T08:12:45;114.60;;;41.40;;
71080;SDS011;58740;50.672;18.690;2024-01-11T08:15:18;129.10;;;44.30;;
71080;SDS011;58740;50.672;18.690;2024-01-11T08:17:52;122.60;;;44.30;;
71080;SDS011;58740;50.672;18.690;2024-01-11T08:20:26;106.60;;;40.00;;
71080;SDS011;58740;50.672;18.690;2024-01-11T08:22:59;105.10;;;40.10;;
71080;SDS011;58740;50.672;18.690;2024-01-11T08:25:34;87.40;;;34.40;;
71080;SDS011;58740;50.672;18.690;2024-01-11T08:28:07;92.80;;;37.10;;
71080;SDS011;58740;50.672;18.690;2024-01-11T08:30:41;79.20;;;32.50;;
71080;SDS011;58740;50.672;18.690;2024-01-11T08:33:14;100.50;;;37.70;;
71080;SDS011;58740;50.672;18.690;2024-01-11T08:35:48;81.00;;;31.90;;
71080;SDS011;58740;50.672;18.690;2024-01-11T08:38:21;87.80;;;34.10;;
71080;SDS011;58740;50.672;18.690;2024-01-11T08:40:56;93.00;;;34.30;;
71080;SDS011;58740;50.672;18.690;2024-01-11T08:43:30;94.80;;;35.60;;
71080;SDS011;58740;50.672;18.690;2024-01-11T08:46:04;98.70;;;34.40;;
71080;SDS011;58740;50.672;18.690;2024-01-11T08:48:37;90.80;;;32.90;;
71080;SDS011;58740;50.672;18.690;2024-01-11T08:51:10;77.60;;;31.20;;
71080;SDS011;58740;50.672;18.690;2024-01-11T08:53:43;84.60;;;31.10;;
71080;SDS011;58740;50.672;18.690;2024-01-11T08:56:17;87.40;;;33.10;;
71080;SDS011;58740;50.672;18.690;2024-01-11T08:58:50;88.40;;;34.80;;
71080;SDS011;58740;50.672;18.690;2024-01-11T09:01:23;89.40;;;31.10;;
71080;SDS011;58740;50.672;18.690;2024-01-11T09:03:56;88.60;;;33.70;;
71080;SDS011;58740;50.672;18.690;2024-01-11T09:06:30;91.40;;;37.50;;
71080;SDS011;58740;50.672;18.690;2024-01-11T09:09:05;102.00;;;35.40;;
71080;SDS011;58740;50.672;18.690;2024-01-11T09:11:41;92.60;;;36.90;;
71080;SDS011;58740;50.672;18.690;2024-01-11T09:14:14;82.20;;;32.30;;
71080;SDS011;58740;50.672;18.690;2024-01-11T09:16:47;92.00;;;32.20;;
71080;SDS011;58740;50.672;18.690;2024-01-11T09:19:21;76.60;;;29.10;;
71080;SDS011;58740;50.672;18.690;2024-01-11T09:21:54;91.70;;;31.10;;
71080;SDS011;58740;50.672;18.690;2024-01-11T09:24:27;69.80;;;28.80;;
71080;SDS011;58740;50.672;18.690;2024-01-11T09:27:07;91.70;;;34.00;;
71080;SDS011;58740;50.672;18.690;2024-01-11T09:29:44;67.80;;;28.30;;
71080;SDS011;58740;50.672;18.690;2024-01-11T09:32:20;89.00;;;30.60;;
71080;SDS011;58740;50.672;18.690;2024-01-11T09:34:54;71.10;;;28.50;;
71080;SDS011;58740;50.672;18.690;2024-01-11T09:37:27;86.00;;;31.30;;
71080;SDS011;58740;50.672;18.690;2024-01-11T09:40:01;74.50;;;29.80;;
71080;SDS011;58740;50.672;18.690;2024-01-11T09:42:41;86.70;;;34.50;;
71080;SDS011;58740;50.672;18.690;2024-01-11T09:45:15;83.50;;;32.30;;
71080;SDS011;58740;50.672;18.690;2024-01-11T09:47:50;90.90;;;33.50;;
71080;SDS011;58740;50.672;18.690;2024-01-11T09:50:25;91.40;;;34.60;;
71080;SDS011;58740;50.672;18.690;2024-01-11T09:53:02;82.20;;;33.50;;
71080;SDS011;58740;50.672;18.690;2024-01-11T09:55:36;89.40;;;32.70;;
71080;SDS011;58740;50.672;18.690;2024-01-11T09:58:10;85.20;;;32.70;;
71080;SDS011;58740;50.672;18.690;2024-01-11T10:00:45;83.60;;;34.20;;
71080;SDS011;58740;50.672;18.690;2024-01-11T10:03:21;84.70;;;32.70;;
71080;SDS011;58740;50.672;18.690;2024-01-11T10:05:58;81.10;;;32.60;;
71080;SDS011;58740;50.672;18.690;2024-01-11T10:08:34;97.40;;;35.80;;
71080;SDS011;58740;50.672;18.690;2024-01-11T10:11:08;96.20;;;38.70;;
71080;SDS011;58740;50.672;18.690;2024-01-11T10:13:41;100.80;;;38.10;;
71080;SDS011;58740;50.672;18.690;2024-01-11T10:16:15;108.80;;;39.90;;
71080;SDS011;58740;50.672;18.690;2024-01-11T10:18:48;109.70;;;42.30;;
71080;SDS011;58740;50.672;18.690;2024-01-11T10:21:25;106.90;;;39.20;;
71080;SDS011;58740;50.672;18.690;2024-01-11T10:24:01;93.40;;;33.20;;
71080;SDS011;58740;50.672;18.690;2024-01-11T10:26:34;91.20;;;38.20;;
71080;SDS011;58740;50.672;18.690;2024-01-11T10:29:09;102.90;;;39.70;;
71080;SDS011;58740;50.672;18.690;2024-01-11T10:31:43;88.30;;;34.50;;
71080;SDS011;58740;50.672;18.690;2024-01-11T10:34:17;72.00;;;31.90;;
71080;SDS011;58740;50.672;18.690;2024-01-11T10:36:51;86.80;;;33.70;;
71080;SDS011;58740;50.672;18.690;2024-01-11T10:39:26;91.30;;;38.30;;
71080;SDS011;58740;50.672;18.690;2024-01-11T10:42:05;91.80;;;37.50;;
71080;SDS011;58740;50.672;18.690;2024-01-11T10:44:42;62.10;;;29.20;;
71080;SDS011;58740;50.672;18.690;2024-01-11T10:47:21;60.10;;;27.30;;
71080;SDS011;58740;50.672;18.690;2024-01-11T10:49:57;64.30;;;27.60;;
71080;SDS011;58740;50.672;18.690;2024-01-11T10:52:39;61.30;;;28.00;;
71080;SDS011;58740;50.672;18.690;2024-01-11T10:55:21;65.20;;;25.50;;
71080;SDS011;58740;50.672;18.690;2024-01-11T10:57:56;74.30;;;29.10;;
71080;SDS011;58740;50.672;18.690;2024-01-11T11:00:32;107.90;;;38.10;;
71080;SDS011;58740;50.672;18.690;2024-01-11T11:03:08;102.50;;;38.90;;
71080;SDS011;58740;50.672;18.690;2024-01-11T11:05:44;93.00;;;34.10;;
71080;SDS011;58740;50.672;18.690;2024-01-11T11:08:21;98.50;;;37.50;;
71080;SDS011;58740;50.672;18.690;2024-01-11T11:10:58;116.30;;;41.00;;
71080;SDS011;58740;50.672;18.690;2024-01-11T11:13:34;112.00;;;42.70;;
71080;SDS011;58740;50.672;18.690;2024-01-11T11:16:10;89.50;;;37.00;;
71080;SDS011;58740;50.672;18.690;2024-01-11T11:18:43;85.40;;;36.90;;
71080;SDS011;58740;50.672;18.690;2024-01-11T11:21:16;101.40;;;38.20;;
71080;SDS011;58740;50.672;18.690;2024-01-11T11:23:50;113.50;;;41.90;;
71080;SDS011;58740;50.672;18.690;2024-01-11T11:26:25;104.80;;;40.40;;
71080;SDS011;58740;50.672;18.690;2024-01-11T11:29:00;101.00;;;38.30;;
71080;SDS011;58740;50.672;18.690;2024-01-11T11:31:39;87.10;;;36.70;;
71080;SDS011;58740;50.672;18.690;2024-01-11T11:34:16;100.90;;;40.60;;
71080;SDS011;58740;50.672;18.690;2024-01-11T11:37:12;93.00;;;38.10;;
71080;SDS011;58740;50.672;18.690;2024-01-11T11:39:53;87.90;;;35.60;;
71080;SDS011;58740;50.672;18.690;2024-01-11T11:42:33;86.00;;;33.60;;
71080;SDS011;58740;50.672;18.690;2024-01-11T11:45:09;104.70;;;37.70;;
71080;SDS011;58740;50.672;18.690;2024-01-11T11:47:42;155.80;;;55.30;;
71080;SDS011;58740;50.672;18.690;2024-01-11T11:50:17;104.70;;;36.70;;
71080;SDS011;58740;50.672;18.690;2024-01-11T11:52:56;80.30;;;30.10;;
71080;SDS011;58740;50.672;18.690;2024-01-11T11:55:31;70.00;;;28.20;;
71080;SDS011;58740;50.672;18.690;2024-01-11T11:58:06;89.90;;;37.30;;
71080;SDS011;58740;50.672;18.690;2024-01-11T12:00:44;78.40;;;34.30;;
71080;SDS011;58740;50.672;18.690;2024-01-11T12:03:18;72.80;;;32.00;;
71080;SDS011;58740;50.672;18.690;2024-01-11T12:05:51;70.50;;;30.60;;
71080;SDS011;58740;50.672;18.690;2024-01-11T12:08:25;72.20;;;31.30;;
71080;SDS011;58740;50.672;18.690;2024-01-11T12:10:59;58.60;;;26.90;;
71080;SDS011;58740;50.672;18.690;2024-01-11T12:13:33;47.30;;;24.10;;
71080;SDS011;58740;50.672;18.690;2024-01-11T12:16:07;60.90;;;26.70;;
71080;SDS011;58740;50.672;18.690;2024-01-11T12:18:41;79.20;;;32.40;;
71080;SDS011;58740;50.672;18.690;2024-01-11T12:21:15;78.90;;;32.60;;
71080;SDS011;58740;50.672;18.690;2024-01-11T12:23:48;66.80;;;28.10;;
71080;SDS011;58740;50.672;18.690;2024-01-11T12:26:22;68.60;;;30.90;;
71080;SDS011;58740;50.672;18.690;2024-01-11T12:28:55;44.60;;;24.20;;
71080;SDS011;58740;50.672;18.690;2024-01-11T12:31:29;69.90;;;29.30;;
71080;SDS011;58740;50.672;18.690;2024-01-11T12:34:03;66.20;;;25.40;;
71080;SDS011;58740;50.672;18.690;2024-01-11T12:36:38;83.90;;;30.80;;
71080;SDS011;58740;50.672;18.690;2024-01-11T12:39:13;88.50;;;36.90;;
71080;SDS011;58740;50.672;18.690;2024-01-11T12:41:48;79.10;;;32.70;;
71080;SDS011;58740;50.672;18.690;2024-01-11T12:44:22;93.20;;;35.00;;
71080;SDS011;58740;50.672;18.690;2024-01-11T12:46:56;87.50;;;36.70;;
71080;SDS011;58740;50.672;18.690;2024-01-11T12:49:29;85.40;;;34.10;;
71080;SDS011;58740;50.672;18.690;2024-01-11T12:52:03;79.20;;;35.70;;
71080;SDS011;58740;50.672;18.690;2024-01-11T12:54:37;88.50;;;37.10;;
71080;SDS011;58740;50.672;18.690;2024-01-11T12:57:12;73.30;;;33.50;;
71080;SDS011;58740;50.672;18.690;2024-01-11T12:59:49;84.20;;;37.40;;
71080;SDS011;58740;50.672;18.690;2024-01-11T13:02:23;75.90;;;37.10;;
71080;SDS011;58740;50.672;18.690;2024-01-11T13:04:56;84.50;;;39.50;;
71080;SDS011;58740;50.672;18.690;2024-01-11T13:07:33;70.00;;;32.10;;
71080;SDS011;58740;50.672;18.690;2024-01-11T13:10:08;80.40;;;33.40;;
71080;SDS011;58740;50.672;18.690;2024-01-11T13:12:42;70.50;;;28.30;;
71080;SDS011;58740;50.672;18.690;2024-01-11T13:15:23;66.30;;;29.60;;
71080;SDS011;58740;50.672;18.690;2024-01-11T13:17:56;68.10;;;33.20;;
71080;SDS011;58740;50.672;18.690;2024-01-11T13:20:30;56.00;;;26.90;;
71080;SDS011;58740;50.672;18.690;2024-01-11T13:23:17;43.50;;;20.00;;
71080;SDS011;58740;50.672;18.690;2024-01-11T13:25:52;41.60;;;18.40;;
71080;SDS011;58740;50.672;18.690;2024-01-11T13:28:25;43.00;;;19.40;;
71080;SDS011;58740;50.672;18.690;2024-01-11T13:30:58;52.40;;;22.50;;
71080;SDS011;58740;50.672;18.690;2024-01-11T13:33:33;52.50;;;23.50;;
71080;SDS011;58740;50.672;18.690;2024-01-11T13:36:07;66.50;;;24.10;;
71080;SDS011;58740;50.672;18.690;2024-01-11T13:38:41;65.10;;;25.50;;
71080;SDS011;58740;50.672;18.690;2024-01-11T13:41:14;57.40;;;23.90;;
71080;SDS011;58740;50.672;18.690;2024-01-11T13:43:48;59.80;;;22.00;;
71080;SDS011;58740;50.672;18.690;2024-01-11T13:46:21;53.90;;;25.10;;
71080;SDS011;58740;50.672;18.690;2024-01-11T13:48:55;58.70;;;24.50;;
71080;SDS011;58740;50.672;18.690;2024-01-11T13:51:28;54.50;;;24.10;;
71080;SDS011;58740;50.672;18.690;2024-01-11T13:54:15;64.00;;;26.00;;
71080;SDS011;58740;50.672;18.690;2024-01-11T13:56:49;62.40;;;22.90;;
71080;SDS011;58740;50.672;18.690;2024-01-11T13:59:23;59.50;;;22.40;;
71080;SDS011;58740;50.672;18.690;2024-01-11T14:01:56;55.90;;;25.40;;
71080;SDS011;58740;50.672;18.690;2024-01-11T14:04:30;48.50;;;20.80;;
71080;SDS011;58740;50.672;18.690;2024-01-11T14:07:04;41.80;;;18.90;;
71080;SDS011;58740;50.672;18.690;2024-01-11T14:09:38;61.60;;;23.10;;
71080;SDS011;58740;50.672;18.690;2024-01-11T14:12:11;54.40;;;23.30;;
71080;SDS011;58740;50.672;18.690;2024-01-11T14:14:46;64.60;;;26.80;;
71080;SDS011;58740;50.672;18.690;2024-01-11T14:17:19;69.50;;;27.50;;
71080;SDS011;58740;50.672;18.690;2024-01-11T14:19:53;72.20;;;29.80;;
71080;SDS011;58740;50.672;18.690;2024-01-11T14:22:26;86.20;;;32.60;;
71080;SDS011;58740;50.672;18.690;2024-01-11T14:24:59;73.30;;;30.20;;
71080;SDS011;58740;50.672;18.690;2024-01-11T14:27:34;74.60;;;29.60;;
71080;SDS011;58740;50.672;18.690;2024-01-11T14:30:09;66.40;;;26.20;;
71080;SDS011;58740;50.672;18.690;2024-01-11T14:32:44;42.80;;;18.20;;
71080;SDS011;58740;50.672;18.690;2024-01-11T14:35:18;58.60;;;23.70;;
71080;SDS011;58740;50.672;18.690;2024-01-11T14:37:52;57.60;;;23.10;;
71080;SDS011;58740;50.672;18.690;2024-01-11T14:40:25;52.80;;;23.00;;
71080;SDS011;58740;50.672;18.690;2024-01-11T14:42:58;50.70;;;19.80;;
71080;SDS011;58740;50.672;18.690;2024-01-11T14:45:32;78.50;;;30.30;;